createdAt,value
2018-09-13T00:01:29.160Z,23.68
2018-09-13T00:03:55.144Z,23.69
2018-09-13T00:06:21.134Z,23.68
2018-09-13T00:08:47.127Z,23.68
2018-09-13T00:11:13.097Z,23.68
2018-09-13T00:13:39.081Z,23.68
2018-09-13T00:16:05.058Z,23.68
2018-09-13T00:18:31.090Z,23.69
2018-09-13T00:20:57.085Z,23.69
2018-09-13T00:23:23.073Z,23.69
2018-09-13T00:25:49.060Z,23.69
2018-09-13T00:28:15.035Z,23.68
2018-09-13T00:30:41.136Z,23.68
2018-09-13T00:33:07.115Z,23.68
2018-09-13T00:35:33.104Z,23.68
2018-09-13T00:37:59.091Z,23.68
2018-09-13T00:40:25.074Z,23.67
2018-09-13T00:42:51.069Z,23.68
2018-09-13T00:45:17.032Z,23.67
2018-09-13T00:47:43.020Z,23.67
2018-09-13T00:50:09.002Z,23.67
2018-09-13T00:52:34.980Z,23.67
2018-09-13T00:55:00.968Z,23.66
2018-09-13T00:57:26.950Z,23.66
2018-09-13T00:59:52.949Z,23.65
2018-09-13T01:02:18.926Z,23.65
2018-09-13T01:04:44.896Z,23.65
2018-09-13T01:07:10.882Z,23.64
2018-09-13T01:09:36.852Z,23.64
2018-09-13T01:12:02.831Z,23.65
2018-09-13T01:14:28.809Z,23.64
2018-09-13T01:16:54.789Z,23.64
2018-09-13T01:19:20.781Z,23.64
2018-09-13T01:21:46.774Z,23.64
2018-09-13T01:24:12.751Z,23.64
2018-09-13T01:26:38.724Z,23.64
2018-09-13T01:29:04.706Z,23.64
2018-09-13T01:31:30.687Z,23.64
2018-09-13T01:33:56.656Z,23.64
2018-09-13T01:36:22.636Z,23.64
2018-09-13T01:38:48.656Z,23.63
2018-09-13T01:41:14.644Z,23.63
2018-09-13T01:43:40.622Z,23.64
2018-09-13T01:46:06.606Z,23.63
2018-09-13T01:48:32.585Z,23.63
2018-09-13T01:50:58.571Z,23.63
2018-09-13T01:53:24.567Z,23.62
2018-09-13T01:55:50.540Z,23.63
2018-09-13T01:58:16.524Z,23.62
2018-09-13T02:00:42.513Z,23.63
2018-09-13T02:03:08.489Z,23.62
2018-09-13T02:05:34.477Z,23.62
2018-09-13T02:08:00.472Z,23.61
2018-09-13T02:10:26.446Z,23.60
2018-09-13T02:12:52.434Z,23.61
2018-09-13T02:15:18.413Z,23.61
2018-09-13T02:17:44.406Z,23.61
2018-09-13T02:20:10.390Z,23.60
2018-09-13T02:22:36.373Z,23.61
2018-09-13T02:25:02.351Z,23.61
2018-09-13T02:27:28.349Z,23.61
2018-09-13T02:29:54.333Z,23.60
2018-09-13T02:32:20.313Z,23.61
2018-09-13T02:34:46.296Z,23.61
2018-09-13T02:37:12.284Z,23.60
2018-09-13T02:39:38.267Z,23.60
2018-09-13T02:42:04.250Z,23.60
2018-09-13T02:44:30.227Z,23.60
2018-09-13T02:46:56.209Z,23.60
2018-09-13T02:49:22.278Z,23.60
2018-09-13T02:51:48.174Z,23.60
2018-09-13T02:54:14.152Z,23.59
2018-09-13T02:56:40.189Z,23.60
2018-09-13T02:59:06.163Z,23.60
2018-09-13T03:01:32.145Z,23.60
2018-09-13T03:03:58.131Z,23.59
2018-09-13T03:06:24.126Z,23.59
2018-09-13T03:08:50.103Z,23.59
2018-09-13T03:11:16.088Z,23.59
2018-09-13T03:13:42.112Z,23.59
2018-09-13T03:16:08.096Z,23.59
2018-09-13T03:18:34.075Z,23.59
2018-09-13T03:21:00.046Z,23.59
2018-09-13T03:23:26.039Z,23.59
2018-09-13T03:25:52.021Z,23.59
2018-09-13T03:28:18.009Z,23.59
2018-09-13T03:30:44.033Z,23.58
2018-09-13T03:33:10.009Z,23.57
2018-09-13T03:35:35.984Z,23.58
2018-09-13T03:38:01.989Z,23.58
2018-09-13T03:40:27.974Z,23.58
2018-09-13T03:42:53.955Z,23.58
2018-09-13T03:45:19.938Z,23.58
2018-09-13T03:47:45.951Z,23.57
2018-09-13T03:50:11.901Z,23.57
2018-09-13T03:52:37.878Z,23.57
2018-09-13T03:55:03.856Z,23.57
2018-09-13T03:57:29.844Z,23.57
2018-09-13T03:59:55.834Z,23.57
2018-09-13T04:02:21.822Z,23.57
2018-09-13T04:04:47.826Z,23.57
2018-09-13T04:07:13.815Z,23.57
2018-09-13T04:09:39.806Z,23.57
2018-09-13T04:12:05.787Z,23.56
2018-09-13T04:14:31.758Z,23.56
2018-09-13T04:16:57.743Z,23.56
2018-09-13T04:19:23.727Z,23.55
2018-09-13T04:21:49.698Z,23.56
2018-09-13T04:24:15.682Z,23.56
2018-09-13T04:26:41.690Z,23.56
2018-09-13T04:29:07.680Z,23.56
2018-09-13T04:31:33.713Z,23.56
2018-09-13T04:33:59.781Z,23.56
2018-09-13T04:36:25.758Z,23.56
2018-09-13T04:38:51.758Z,23.56
2018-09-13T04:41:17.741Z,23.56
2018-09-13T04:43:43.720Z,23.55
2018-09-13T04:46:09.721Z,23.57
2018-09-13T04:48:35.711Z,23.60
2018-09-13T04:51:01.751Z,23.59
2018-09-13T04:53:27.718Z,23.60
2018-09-13T04:55:53.702Z,23.61
2018-09-13T04:58:19.730Z,23.61
2018-09-13T05:00:45.706Z,23.62
2018-09-13T05:03:11.678Z,23.62
2018-09-13T05:05:37.701Z,23.63
2018-09-13T05:08:03.685Z,23.65
2018-09-13T05:10:29.667Z,23.66
2018-09-13T05:12:55.689Z,23.67
2018-09-13T05:15:21.641Z,23.67
2018-09-13T05:17:47.622Z,23.69
2018-09-13T05:20:13.614Z,23.69
2018-09-13T05:22:39.610Z,23.69
2018-09-13T05:25:05.588Z,23.70
2018-09-13T05:27:31.572Z,23.70
2018-09-13T05:29:57.557Z,23.69
2018-09-13T05:32:23.540Z,23.69
2018-09-13T05:34:49.525Z,23.69
2018-09-13T05:37:15.620Z,23.69
2018-09-13T05:39:41.571Z,23.67
2018-09-13T05:42:07.592Z,23.66
2018-09-13T05:44:33.702Z,23.66
2018-09-13T05:46:59.640Z,23.65
2018-09-13T05:49:25.654Z,23.63
2018-09-13T05:51:51.635Z,23.62
2018-09-13T05:54:17.613Z,23.61
2018-09-13T05:56:43.628Z,23.60
2018-09-13T05:59:12.201Z,23.62
2018-09-13T06:01:38.180Z,23.63
2018-09-13T06:04:04.160Z,23.62
2018-09-13T06:06:33.686Z,23.62
2018-09-13T06:08:59.656Z,23.61
2018-09-13T06:11:25.678Z,23.61
2018-09-13T06:13:51.631Z,23.61
2018-09-13T06:16:17.618Z,23.61
2018-09-13T06:18:43.605Z,23.61
2018-09-13T06:21:09.655Z,23.60
2018-09-13T06:23:36.838Z,23.60
2018-09-13T06:26:02.827Z,23.60
2018-09-13T06:28:29.290Z,23.60
2018-09-13T06:30:55.747Z,23.60
2018-09-13T06:33:21.725Z,23.59
2018-09-13T06:35:47.705Z,23.59
2018-09-13T06:38:13.743Z,23.59
2018-09-13T06:40:39.769Z,23.59
2018-09-13T06:43:05.708Z,23.59
2018-09-13T06:45:31.761Z,23.59
2018-09-13T06:47:57.706Z,23.59
2018-09-13T06:50:23.686Z,23.59
2018-09-13T06:52:49.769Z,23.59
2018-09-13T06:55:15.746Z,23.58
2018-09-13T06:57:41.767Z,23.58
2018-09-13T07:00:07.750Z,23.57
2018-09-13T07:02:33.747Z,23.56
2018-09-13T07:04:59.722Z,23.55
2018-09-13T07:07:25.702Z,23.55
2018-09-13T07:09:51.690Z,23.55
2018-09-13T07:12:17.676Z,23.55
2018-09-13T07:14:43.668Z,23.55
2018-09-13T07:17:09.637Z,23.55
2018-09-13T07:19:35.619Z,23.56
2018-09-13T07:22:01.609Z,23.56
2018-09-13T07:24:27.593Z,23.56
2018-09-13T07:26:53.567Z,23.55
2018-09-13T07:29:19.571Z,23.56
2018-09-13T07:31:45.574Z,23.56
2018-09-13T07:34:11.570Z,23.56
2018-09-13T07:36:37.609Z,23.56
2018-09-13T07:39:03.613Z,23.56
2018-09-13T07:41:29.589Z,23.56
2018-09-13T07:43:55.586Z,23.56
2018-09-13T07:46:21.622Z,23.56
2018-09-13T07:48:47.649Z,23.56
2018-09-13T07:51:13.767Z,23.56
2018-09-13T07:53:39.726Z,23.56
2018-09-13T07:56:05.696Z,23.56
2018-09-13T07:58:31.693Z,23.56
2018-09-13T08:00:57.694Z,23.56
2018-09-13T08:03:27.028Z,23.56
2018-09-13T08:05:52.973Z,23.56
2018-09-13T08:08:19.052Z,23.55
2018-09-13T08:10:45.053Z,23.56
2018-09-13T08:13:11.056Z,23.55
2018-09-13T08:15:37.147Z,23.54
2018-09-13T08:18:03.106Z,23.56
2018-09-13T08:20:29.085Z,23.55
2018-09-13T08:22:55.129Z,23.55
2018-09-13T08:25:21.077Z,23.55
2018-09-13T08:27:47.068Z,23.56
2018-09-13T08:30:13.067Z,23.55
2018-09-13T08:32:39.076Z,23.55
2018-09-13T08:35:05.244Z,23.55
2018-09-13T08:37:31.172Z,23.55
2018-09-13T08:39:57.248Z,23.55
2018-09-13T08:42:23.143Z,23.54
2018-09-13T08:44:49.138Z,23.56
2018-09-13T08:47:15.107Z,23.55
2018-09-13T08:49:41.084Z,23.56
2018-09-13T08:52:07.099Z,23.55
2018-09-13T08:54:33.081Z,23.55
2018-09-13T08:56:59.090Z,23.54
2018-09-13T08:59:25.068Z,23.54
2018-09-13T09:01:51.054Z,23.55
2018-09-13T09:04:17.044Z,23.54
2018-09-13T09:06:43.022Z,23.53
2018-09-13T09:09:09.016Z,23.52
2018-09-13T09:11:35.152Z,23.52
2018-09-13T09:14:01.130Z,23.52
2018-09-13T09:16:27.108Z,23.52
2018-09-13T09:18:53.084Z,23.52
2018-09-13T09:21:19.059Z,23.52
2018-09-13T09:23:45.051Z,23.53
2018-09-13T09:26:11.100Z,23.52
2018-09-13T09:28:37.065Z,23.52
2018-09-13T09:31:03.040Z,23.53
2018-09-13T09:33:29.038Z,23.53
2018-09-13T09:35:55.018Z,23.53
2018-09-13T09:38:21.014Z,23.53
2018-09-13T09:40:47.459Z,23.52
2018-09-13T09:43:13.137Z,23.52
2018-09-13T09:45:39.153Z,23.50
2018-09-13T09:48:05.225Z,23.50
2018-09-13T09:50:31.206Z,23.51
2018-09-13T09:52:57.230Z,23.52
2018-09-13T09:55:23.205Z,23.53
2018-09-13T09:57:49.219Z,23.53
2018-09-13T10:00:15.211Z,23.54
2018-09-13T10:02:41.239Z,23.55
2018-09-13T10:05:07.267Z,23.56
2018-09-13T10:07:33.267Z,23.55
2018-09-13T10:09:59.260Z,23.56
2018-09-13T10:12:25.247Z,23.56
2018-09-13T10:14:51.229Z,23.57
2018-09-13T10:17:17.214Z,23.57
2018-09-13T10:19:43.213Z,23.58
2018-09-13T10:22:09.232Z,23.59
2018-09-13T10:24:35.206Z,23.58
2018-09-13T10:27:01.253Z,23.58
2018-09-13T10:29:27.299Z,23.58
2018-09-13T10:31:53.178Z,23.58
2018-09-13T10:34:19.200Z,23.58
2018-09-13T10:36:45.188Z,23.57
2018-09-13T10:39:11.190Z,23.57
2018-09-13T10:41:37.196Z,23.58
2018-09-13T10:44:03.177Z,23.57
2018-09-13T10:46:29.170Z,23.58
2018-09-13T10:48:55.223Z,23.57
2018-09-13T10:51:21.229Z,23.58
2018-09-13T10:53:47.205Z,23.59
2018-09-13T10:56:13.205Z,23.59
2018-09-13T10:58:39.184Z,23.58
2018-09-13T11:01:05.162Z,23.58
2018-09-13T11:03:31.161Z,23.61
2018-09-13T11:05:57.161Z,23.61
2018-09-13T11:08:23.183Z,23.61
2018-09-13T11:10:49.322Z,23.61
2018-09-13T11:13:15.250Z,23.61
2018-09-13T11:15:41.236Z,23.61
2018-09-13T11:18:07.239Z,23.61
2018-09-13T11:20:33.279Z,23.61
2018-09-13T11:22:59.261Z,23.62
2018-09-13T11:25:25.300Z,23.63
2018-09-13T11:27:51.303Z,23.65
2018-09-13T11:30:17.278Z,23.65
2018-09-13T11:32:43.335Z,23.65
2018-09-13T11:35:09.346Z,23.66
2018-09-13T11:37:35.380Z,23.69
2018-09-13T11:40:01.401Z,23.68
2018-09-13T11:42:27.357Z,23.67
2018-09-13T11:44:53.338Z,23.65
2018-09-13T11:47:19.373Z,23.64
2018-09-13T11:49:45.369Z,23.63
2018-09-13T11:52:11.369Z,23.63
2018-09-13T11:54:37.349Z,23.63
2018-09-13T11:57:03.365Z,23.63
2018-09-13T11:59:29.355Z,23.62
2018-09-13T12:01:55.513Z,23.61
2018-09-13T12:04:21.413Z,23.61
2018-09-13T12:06:47.392Z,23.61
2018-09-13T12:09:13.364Z,23.62
2018-09-13T12:11:39.365Z,23.65
2018-09-13T12:14:05.361Z,23.65
2018-09-13T12:16:31.354Z,23.65
2018-09-13T12:18:57.364Z,23.64
2018-09-13T12:21:23.368Z,23.62
2018-09-13T12:23:49.362Z,23.64
2018-09-13T12:26:15.354Z,23.65
2018-09-13T12:28:41.326Z,23.64
2018-09-13T12:31:07.329Z,23.64
2018-09-13T12:33:33.404Z,23.63
2018-09-13T12:35:59.346Z,23.63
2018-09-13T12:38:25.329Z,23.64
2018-09-13T12:40:51.325Z,23.64
2018-09-13T12:43:17.326Z,23.64
2018-09-13T12:45:43.321Z,23.64
2018-09-13T12:48:09.299Z,23.64
2018-09-13T12:50:35.290Z,23.63
2018-09-13T12:53:01.281Z,23.62
2018-09-13T12:55:27.262Z,23.61
2018-09-13T12:57:53.254Z,23.60
2018-09-13T13:00:19.264Z,23.60
2018-09-13T13:02:45.265Z,23.61
2018-09-13T13:05:11.264Z,23.62
2018-09-13T13:07:37.241Z,23.62
2018-09-13T13:10:03.220Z,23.62
2018-09-13T13:12:29.201Z,23.63
2018-09-13T13:14:55.186Z,23.63
2018-09-13T13:17:21.189Z,23.63
2018-09-13T13:19:47.187Z,23.64
2018-09-13T13:22:13.189Z,23.65
2018-09-13T13:24:39.168Z,23.66
2018-09-13T13:27:05.148Z,23.66
2018-09-13T13:29:31.145Z,23.65
2018-09-13T13:31:57.136Z,23.64
2018-09-13T13:34:23.140Z,23.65
2018-09-13T13:36:49.121Z,23.64
2018-09-13T13:39:15.127Z,23.63
2018-09-13T13:41:41.127Z,23.64
2018-09-13T13:44:07.176Z,23.64
2018-09-13T13:46:33.108Z,23.65
2018-09-13T13:48:59.109Z,23.65
2018-09-13T13:51:25.120Z,23.69
2018-09-13T13:53:51.154Z,23.92
2018-09-13T13:56:17.158Z,23.85
2018-09-13T13:58:43.132Z,23.80
2018-09-13T14:01:09.138Z,23.76
2018-09-13T14:03:35.113Z,23.75
2018-09-13T14:06:01.118Z,23.74
2018-09-13T14:08:27.101Z,23.73
2018-09-13T14:10:53.077Z,23.71
2018-09-13T14:13:19.056Z,23.69
2018-09-13T14:15:45.028Z,23.68
2018-09-13T14:18:11.094Z,23.68
2018-09-13T14:20:37.141Z,23.70
2018-09-13T14:23:03.100Z,23.70
2018-09-13T14:25:29.075Z,23.70
2018-09-13T14:27:55.054Z,23.70
2018-09-13T14:30:21.049Z,23.71
2018-09-13T14:32:47.084Z,23.69
2018-09-13T14:35:13.025Z,23.69
2018-09-13T14:37:39.037Z,23.70
2018-09-13T14:40:05.080Z,23.70
2018-09-13T14:42:31.012Z,23.73
2018-09-13T14:44:56.994Z,23.74
2018-09-13T14:47:23.015Z,23.75
2018-09-13T14:49:49.019Z,23.75
2018-09-13T14:52:15.015Z,23.76
2018-09-13T14:54:40.998Z,23.76
2018-09-13T14:57:07.138Z,23.76
2018-09-13T14:59:33.098Z,23.77
2018-09-13T15:01:59.074Z,23.79
2018-09-13T15:04:25.060Z,23.78
2018-09-13T15:06:51.095Z,23.80
2018-09-13T15:09:17.019Z,23.80
2018-09-13T15:11:43.033Z,23.82
2018-09-13T15:14:09.006Z,23.82
2018-09-13T15:16:34.985Z,23.84
2018-09-13T15:19:01.002Z,23.85
2018-09-13T15:21:26.964Z,23.84
2018-09-13T15:23:52.953Z,23.83
2018-09-13T15:26:18.936Z,23.82
2018-09-13T15:28:45.016Z,23.82
2018-09-13T15:31:11.089Z,23.84
2018-09-13T15:33:36.999Z,23.83
2018-09-13T15:36:03.036Z,23.82
2018-09-13T15:38:29.074Z,23.82
2018-09-13T15:40:55.058Z,23.81
2018-09-13T15:43:21.039Z,23.81
2018-09-13T15:45:47.008Z,23.80
2018-09-13T15:48:13.051Z,23.80
2018-09-13T15:50:39.064Z,23.82
2018-09-13T15:53:05.075Z,23.83
2018-09-13T15:55:31.068Z,23.85
2018-09-13T15:57:57.069Z,23.87
2018-09-13T16:00:23.104Z,23.87
2018-09-13T16:02:49.098Z,23.88
2018-09-13T16:05:15.102Z,23.88
2018-09-13T16:07:41.100Z,23.88
2018-09-13T16:10:07.100Z,23.87
2018-09-13T16:12:33.096Z,23.87
2018-09-13T16:14:59.078Z,23.87
2018-09-13T16:17:25.056Z,23.87
2018-09-13T16:19:51.063Z,23.87
2018-09-13T16:22:17.085Z,23.87
2018-09-13T16:24:43.097Z,23.86
2018-09-13T16:27:09.239Z,23.86
2018-09-13T16:29:35.322Z,23.86
2018-09-13T16:32:01.300Z,23.85
2018-09-13T16:34:27.286Z,23.84
2018-09-13T16:36:53.298Z,23.84
2018-09-13T16:39:19.250Z,23.83
2018-09-13T16:41:45.235Z,23.83
2018-09-13T16:44:11.225Z,23.84
2018-09-13T16:46:37.257Z,23.84
2018-09-13T16:49:03.233Z,23.83
2018-09-13T16:51:29.217Z,23.83
2018-09-13T16:53:55.217Z,23.82
2018-09-13T16:56:21.253Z,23.82
2018-09-13T16:58:47.292Z,23.82
2018-09-13T17:01:13.280Z,23.82
2018-09-13T17:03:39.265Z,23.82
2018-09-13T17:06:05.243Z,23.82
2018-09-13T17:08:31.222Z,23.82
2018-09-13T17:10:57.234Z,23.82
2018-09-13T17:13:23.214Z,23.82
2018-09-13T17:15:49.193Z,23.82
2018-09-13T17:18:15.182Z,23.82
2018-09-13T17:20:41.167Z,23.80
2018-09-13T17:23:07.141Z,23.79
2018-09-13T17:25:33.120Z,23.79
2018-09-13T17:27:59.099Z,23.80
2018-09-13T17:30:25.078Z,23.82
2018-09-13T17:32:51.058Z,23.88
2018-09-13T17:35:17.070Z,23.91
2018-09-13T17:37:43.046Z,23.91
2018-09-13T17:40:09.025Z,23.91
2018-09-13T17:42:35.035Z,23.91
2018-09-13T17:45:01.053Z,23.91
2018-09-13T17:47:27.043Z,23.90
2018-09-13T17:49:53.015Z,23.90
2018-09-13T17:52:19.007Z,23.89
2018-09-13T17:54:45.005Z,23.88
2018-09-13T17:57:10.993Z,23.89
2018-09-13T17:59:36.970Z,23.90
2018-09-13T18:02:02.962Z,23.91
2018-09-13T18:04:28.946Z,23.92
2018-09-13T18:06:54.936Z,23.91
2018-09-13T18:09:20.909Z,23.91
2018-09-13T18:11:46.892Z,23.91
2018-09-13T18:14:12.876Z,23.91
2018-09-13T18:16:38.854Z,23.92
2018-09-13T18:19:04.829Z,23.93
2018-09-13T18:21:30.810Z,23.93
2018-09-13T18:23:56.795Z,23.92
2018-09-13T18:26:22.798Z,23.91
2018-09-13T18:28:48.793Z,23.91
2018-09-13T18:31:14.778Z,23.92
2018-09-13T18:33:40.759Z,23.95
2018-09-13T18:36:06.747Z,23.95
2018-09-13T18:38:32.743Z,23.95
2018-09-13T18:40:58.727Z,23.95
2018-09-13T18:43:24.714Z,23.95
2018-09-13T18:45:50.696Z,23.94
2018-09-13T18:48:16.676Z,23.95
2018-09-13T18:50:42.661Z,23.95
2018-09-13T18:53:08.710Z,23.94
2018-09-13T18:55:34.684Z,23.92
2018-09-13T18:58:00.658Z,23.92
2018-09-13T19:00:26.643Z,23.91
2018-09-13T19:02:52.609Z,23.92
2018-09-13T19:05:18.611Z,23.94
2018-09-13T19:07:44.583Z,23.94
2018-09-13T19:10:10.579Z,23.94
2018-09-13T19:12:36.560Z,23.94
2018-09-13T19:15:02.548Z,23.94
2018-09-13T19:17:28.601Z,23.94
2018-09-13T19:19:54.582Z,23.93
2018-09-13T19:22:20.672Z,23.94
2018-09-13T19:24:46.796Z,23.94
2018-09-13T19:27:12.773Z,23.95
2018-09-13T19:29:38.823Z,23.95
2018-09-13T19:32:04.801Z,23.95
2018-09-13T19:34:30.852Z,23.95
2018-09-13T19:36:56.826Z,23.94
2018-09-13T19:39:22.944Z,23.95
2018-09-13T19:41:48.980Z,23.95
2018-09-13T19:44:14.990Z,23.95
2018-09-13T19:46:41.023Z,23.94
2018-09-13T19:49:07.009Z,23.94
2018-09-13T19:51:32.994Z,23.94
2018-09-13T19:53:58.966Z,23.94
2018-09-13T19:56:25.010Z,23.92
2018-09-13T19:58:50.984Z,23.91
2018-09-13T20:01:17.068Z,23.89
2018-09-13T20:03:43.112Z,23.88
2018-09-13T20:06:09.153Z,23.90
2018-09-13T20:08:35.129Z,23.90
2018-09-13T20:11:01.158Z,23.90
2018-09-13T20:13:27.135Z,23.91
2018-09-13T20:15:53.302Z,23.91
2018-09-13T20:18:19.387Z,23.90
2018-09-13T20:20:45.271Z,23.89
2018-09-13T20:23:11.324Z,23.90
2018-09-13T20:25:37.238Z,23.90
2018-09-13T20:28:03.218Z,23.91
2018-09-13T20:30:29.205Z,23.90
2018-09-13T20:32:55.205Z,23.90
2018-09-13T20:35:21.213Z,23.90
2018-09-13T20:37:47.172Z,23.90
2018-09-13T20:40:13.150Z,23.89
2018-09-13T20:42:39.170Z,23.89
2018-09-13T20:45:05.117Z,23.90
2018-09-13T20:47:31.099Z,23.90
2018-09-13T20:49:57.081Z,23.91
2018-09-13T20:52:23.065Z,23.91
2018-09-13T20:54:49.130Z,23.91
2018-09-13T20:57:15.072Z,23.91
2018-09-13T20:59:41.015Z,23.91
2018-09-13T21:02:06.997Z,23.91
2018-09-13T21:04:33.021Z,23.92
2018-09-13T21:06:58.998Z,23.92
2018-09-13T21:09:24.968Z,23.92
2018-09-13T21:11:50.964Z,23.92
2018-09-13T21:14:16.953Z,23.93
2018-09-13T21:16:42.941Z,23.91
2018-09-13T21:19:09.029Z,23.92
2018-09-13T21:21:35.010Z,23.92
2018-09-13T21:24:01.010Z,23.93
2018-09-13T21:26:26.987Z,23.93
2018-09-13T21:28:52.968Z,23.91
2018-09-13T21:31:18.947Z,23.90
2018-09-13T21:33:44.934Z,23.90
2018-09-13T21:36:10.914Z,23.88
2018-09-13T21:38:36.914Z,23.87
2018-09-13T21:41:02.895Z,23.86
2018-09-13T21:43:28.902Z,23.85
2018-09-13T21:45:54.909Z,23.85
2018-09-13T21:48:20.884Z,23.84
2018-09-13T21:50:46.880Z,23.83
2018-09-13T21:53:12.882Z,23.83
2018-09-13T21:55:38.878Z,23.82
2018-09-13T21:58:04.859Z,23.81
2018-09-13T22:00:30.837Z,23.81
2018-09-13T22:02:56.833Z,23.80
2018-09-13T22:07:48.800Z,23.79
2018-09-13T22:10:14.790Z,23.78
2018-09-13T22:12:40.768Z,23.79
2018-09-13T22:15:06.758Z,23.77
2018-09-13T22:17:32.736Z,23.77
2018-09-13T22:19:58.725Z,23.77
2018-09-13T22:22:24.707Z,23.76
2018-09-13T22:24:50.680Z,23.75
2018-09-13T22:27:16.660Z,23.76
2018-09-13T22:29:42.637Z,23.76
2018-09-13T22:32:08.617Z,23.75
2018-09-13T22:34:34.597Z,23.74
2018-09-13T22:37:00.572Z,23.73
2018-09-13T22:39:26.568Z,23.74
2018-09-13T22:41:52.552Z,23.73
2018-09-13T22:44:18.537Z,23.73
2018-09-13T22:46:44.525Z,23.72
2018-09-13T22:49:10.496Z,23.71
2018-09-13T22:51:36.483Z,23.72
2018-09-13T22:54:02.471Z,23.70
2018-09-13T22:56:28.457Z,23.70
2018-09-13T22:58:54.441Z,23.70
2018-09-13T23:01:20.417Z,23.70
2018-09-13T23:03:46.399Z,23.69
2018-09-13T23:06:12.377Z,23.70
2018-09-13T23:08:38.368Z,23.69
2018-09-13T23:11:04.337Z,23.69
2018-09-13T23:13:30.319Z,23.68
2018-09-13T23:15:56.326Z,23.69
2018-09-13T23:18:22.279Z,23.68
2018-09-13T23:20:48.263Z,23.68
2018-09-13T23:23:14.245Z,23.68
2018-09-13T23:25:40.273Z,23.66
2018-09-13T23:28:06.255Z,23.67
2018-09-13T23:30:32.241Z,23.66
2018-09-13T23:32:58.250Z,23.66
2018-09-13T23:35:24.228Z,23.66
2018-09-13T23:37:50.202Z,23.66
2018-09-13T23:40:16.333Z,23.66
2018-09-13T23:42:42.164Z,23.66
2018-09-13T23:45:08.144Z,23.66
2018-09-13T23:47:34.123Z,23.65
2018-09-13T23:50:00.103Z,23.65
2018-09-13T23:52:26.083Z,23.65
2018-09-13T23:54:52.064Z,23.64
2018-09-13T23:57:18.040Z,23.64
2018-09-13T23:59:44.023Z,23.64
